sensor_id;sensor_type;location;lat;lon;timestamp;temperature;humidity
23769;DHT22;12064;50.890;5.424;2023-02-10T00:07:32;20.90;65.30
23769;DHT22;12064;50.890;5.424;2023-02-10T00:16:26;20.40;67.10
23769;DHT22;12064;50.890;5.424;2023-02-10T00:25:19;20.30;67.30
23769;DHT22;12064;50.890;5.424;2023-02-10T00:34:15;20.30;67.10
23769;DHT22;12064;50.890;5.424;2023-02-10T00:43:05;20.40;66.80
23769;DHT22;12064;50.890;5.424;2023-02-10T00:51:56;21.40;63.80
23769;DHT22;12064;50.890;5.424;2023-02-10T01:00:48;21.40;63.30
23769;DHT22;12064;50.890;5.424;2023-02-10T01:09:52;20.50;66.20
23769;DHT22;12064;50.890;5.424;2023-02-10T01:18:43;20.30;67.00
23769;DHT22;12064;50.890;5.424;2023-02-10T01:37:05;20.20;67.30
23769;DHT22;12064;50.890;5.424;2023-02-10T01:45:57;20.50;66.20
23769;DHT22;12064;50.890;5.424;2023-02-10T02:04:09;21.00;64.00
23769;DHT22;12064;50.890;5.424;2023-02-10T02:13:17;20.40;66.10
23769;DHT22;12064;50.890;5.424;2023-02-10T02:32:22;20.20;66.70
23769;DHT22;12064;50.890;5.424;2023-02-10T02:40:54;20.10;66.90
23769;DHT22;12064;50.890;5.424;2023-02-10T02:50:01;20.50;65.80
23769;DHT22;12064;50.890;5.424;2023-02-10T02:59:07;21.20;63.40
23769;DHT22;12064;50.890;5.424;2023-02-10T03:08:02;20.70;64.80
23769;DHT22;12064;50.890;5.424;2023-02-10T03:16:56;20.40;66.20
23769;DHT22;12064;50.890;5.424;2023-02-10T03:25:58;20.10;66.80
23769;DHT22;12064;50.890;5.424;2023-02-10T03:34:51;20.20;66.50
23769;DHT22;12064;50.890;5.424;2023-02-10T03:43:42;20.10;66.60
23769;DHT22;12064;50.890;5.424;2023-02-10T03:52:33;20.60;65.20
23769;DHT22;12064;50.890;5.424;2023-02-10T04:01:27;20.20;66.20
23769;DHT22;12064;50.890;5.424;2023-02-10T04:10:21;20.00;66.80
23769;DHT22;12064;50.890;5.424;2023-02-10T04:19:18;19.90;67.20
23769;DHT22;12064;50.890;5.424;2023-02-10T04:28:08;19.90;67.50
23769;DHT22;12064;50.890;5.424;2023-02-10T04:36:59;19.80;67.40
23769;DHT22;12064;50.890;5.424;2023-02-10T04:45:50;19.90;66.90
23769;DHT22;12064;50.890;5.424;2023-02-10T04:54:43;20.10;66.70
23769;DHT22;12064;50.890;5.424;2023-02-10T05:04:06;20.50;65.80
23769;DHT22;12064;50.890;5.424;2023-02-10T05:13:14;20.90;65.00
23769;DHT22;12064;50.890;5.424;2023-02-10T05:22:08;21.30;64.20
23769;DHT22;12064;50.890;5.424;2023-02-10T05:31:06;21.50;63.90
23769;DHT22;12064;50.890;5.424;2023-02-10T05:39:58;21.40;64.20
23769;DHT22;12064;50.890;5.424;2023-02-10T05:48:49;21.40;64.20
23769;DHT22;12064;50.890;5.424;2023-02-10T05:57:39;21.30;64.40
23769;DHT22;12064;50.890;5.424;2023-02-10T06:06:30;21.20;65.30
23769;DHT22;12064;50.890;5.424;2023-02-10T06:15:21;21.50;64.60
23769;DHT22;12064;50.890;5.424;2023-02-10T06:24:14;22.00;63.00
23769;DHT22;12064;50.890;5.424;2023-02-10T06:33:05;22.90;61.80
23769;DHT22;12064;50.890;5.424;2023-02-10T06:41:56;23.10;60.60
23769;DHT22;12064;50.890;5.424;2023-02-10T06:50:48;23.50;59.40
23769;DHT22;12064;50.890;5.424;2023-02-10T06:59:40;23.30;59.50
23769;DHT22;12064;50.890;5.424;2023-02-10T07:08:31;23.10;59.70
23769;DHT22;12064;50.890;5.424;2023-02-10T07:17:23;22.50;60.30
23769;DHT22;12064;50.890;5.424;2023-02-10T07:26:14;21.30;64.20
23769;DHT22;12064;50.890;5.424;2023-02-10T07:35:08;20.90;65.10
23769;DHT22;12064;50.890;5.424;2023-02-10T07:43:59;20.70;65.60
23769;DHT22;12064;50.890;5.424;2023-02-10T07:52:50;20.50;66.00
23769;DHT22;12064;50.890;5.424;2023-02-10T08:01:43;20.40;66.30
23769;DHT22;12064;50.890;5.424;2023-02-10T08:10:37;20.20;66.50
23769;DHT22;12064;50.890;5.424;2023-02-10T08:19:29;20.20;66.60
23769;DHT22;12064;50.890;5.424;2023-02-10T08:28:19;20.20;66.30
23769;DHT22;12064;50.890;5.424;2023-02-10T08:37:13;20.40;66.10
23769;DHT22;12064;50.890;5.424;2023-02-10T08:46:04;20.30;66.30
23769;DHT22;12064;50.890;5.424;2023-02-10T08:54:55;20.20;66.40
23769;DHT22;12064;50.890;5.424;2023-02-10T09:03:50;20.10;66.60
23769;DHT22;12064;50.890;5.424;2023-02-10T09:12:41;20.10;66.70
23769;DHT22;12064;50.890;5.424;2023-02-10T09:21:32;20.10;66.60
23769;DHT22;12064;50.890;5.424;2023-02-10T09:30:26;20.10;66.50
23769;DHT22;12064;50.890;5.424;2023-02-10T09:39:16;20.20;66.30
23769;DHT22;12064;50.890;5.424;2023-02-10T09:57:29;20.00;66.50
23769;DHT22;12064;50.890;5.424;2023-02-10T10:06:29;19.90;66.70
23769;DHT22;12064;50.890;5.424;2023-02-10T10:15:21;20.10;66.30
23769;DHT22;12064;50.890;5.424;2023-02-10T10:33:53;20.40;65.00
23769;DHT22;12064;50.890;5.424;2023-02-10T10:42:48;20.10;66.70
23769;DHT22;12064;50.890;5.424;2023-02-10T10:51:39;20.00;66.40
23769;DHT22;12064;50.890;5.424;2023-02-10T11:00:30;19.90;66.70
23769;DHT22;12064;50.890;5.424;2023-02-10T11:09:28;19.90;66.70
23769;DHT22;12064;50.890;5.424;2023-02-10T11:18:21;19.90;66.80
23769;DHT22;12064;50.890;5.424;2023-02-10T11:27:14;20.00;66.40
23769;DHT22;12064;50.890;5.424;2023-02-10T11:36:09;20.70;64.10
23769;DHT22;12064;50.890;5.424;2023-02-10T11:45:26;21.00;63.00
23769;DHT22;12064;50.890;5.424;2023-02-10T11:54:17;20.20;65.70
23769;DHT22;12064;50.890;5.424;2023-02-10T12:21:30;19.80;67.00
23769;DHT22;12064;50.890;5.424;2023-02-10T12:30:46;19.80;66.60
23769;DHT22;12064;50.890;5.424;2023-02-10T12:58:36;21.20;62.20
23769;DHT22;12064;50.890;5.424;2023-02-10T13:07:49;21.40;61.90
23769;DHT22;12064;50.890;5.424;2023-02-10T13:16:45;21.50;61.20
23769;DHT22;12064;50.890;5.424;2023-02-10T13:34:53;20.20;65.20
23769;DHT22;12064;50.890;5.424;2023-02-10T13:43:46;19.90;66.20
23769;DHT22;12064;50.890;5.424;2023-02-10T13:52:54;19.80;66.60
23769;DHT22;12064;50.890;5.424;2023-02-10T14:01:49;19.90;66.30
23769;DHT22;12064;50.890;5.424;2023-02-10T14:19:52;20.80;63.10
23769;DHT22;12064;50.890;5.424;2023-02-10T14:28:49;21.20;62.20
23769;DHT22;12064;50.890;5.424;2023-02-10T14:37:48;21.40;61.50
23769;DHT22;12064;50.890;5.424;2023-02-10T14:46:39;21.30;61.60
23769;DHT22;12064;50.890;5.424;2023-02-10T14:55:38;21.30;61.50
23769;DHT22;12064;50.890;5.424;2023-02-10T15:04:32;20.60;63.20
23769;DHT22;12064;50.890;5.424;2023-02-10T15:13:36;20.00;65.50
23769;DHT22;12064;50.890;5.424;2023-02-10T15:22:39;19.70;66.50
23769;DHT22;12064;50.890;5.424;2023-02-10T15:31:30;19.90;66.30
23769;DHT22;12064;50.890;5.424;2023-02-10T15:40:27;20.60;64.10
23769;DHT22;12064;50.890;5.424;2023-02-10T15:49:20;21.00;62.50
23769;DHT22;12064;50.890;5.424;2023-02-10T15:58:14;21.20;61.80
23769;DHT22;12064;50.890;5.424;2023-02-10T16:07:06;21.20;61.90
23769;DHT22;12064;50.890;5.424;2023-02-10T16:15:56;21.10;62.00
23769;DHT22;12064;50.890;5.424;2023-02-10T16:24:47;21.10;62.60
23769;DHT22;12064;50.890;5.424;2023-02-10T16:33:41;20.10;65.10
23769;DHT22;12064;50.890;5.424;2023-02-10T16:42:33;20.10;66.10
23769;DHT22;12064;50.890;5.424;2023-02-10T16:51:24;20.30;65.90
23769;DHT22;12064;50.890;5.424;2023-02-10T17:00:15;20.40;65.90
23769;DHT22;12064;50.890;5.424;2023-02-10T17:09:19;20.20;66.00
23769;DHT22;12064;50.890;5.424;2023-02-10T17:18:13;20.30;66.20
23769;DHT22;12064;50.890;5.424;2023-02-10T17:27:04;20.50;65.70
23769;DHT22;12064;50.890;5.424;2023-02-10T17:35:55;20.60;65.80
23769;DHT22;12064;50.890;5.424;2023-02-10T17:44:48;20.50;66.00
23769;DHT22;12064;50.890;5.424;2023-02-10T17:53:41;20.60;66.10
23769;DHT22;12064;50.890;5.424;2023-02-10T18:02:35;21.10;66.30
23769;DHT22;12064;50.890;5.424;2023-02-10T18:11:26;21.80;64.80
23769;DHT22;12064;50.890;5.424;2023-02-10T18:20:19;22.50;63.50
23769;DHT22;12064;50.890;5.424;2023-02-10T18:29:11;22.60;63.70
23769;DHT22;12064;50.890;5.424;2023-02-10T18:38:05;22.70;63.90
23769;DHT22;12064;50.890;5.424;2023-02-10T18:46:56;23.10;63.40
23769;DHT22;12064;50.890;5.424;2023-02-10T18:55:47;23.30;61.80
23769;DHT22;12064;50.890;5.424;2023-02-10T19:04:41;22.40;63.70
23769;DHT22;12064;50.890;5.424;2023-02-10T19:13:32;21.60;66.20
23769;DHT22;12064;50.890;5.424;2023-02-10T19:22:23;21.40;66.40
23769;DHT22;12064;50.890;5.424;2023-02-10T19:31:15;21.20;66.80
23769;DHT22;12064;50.890;5.424;2023-02-10T19:40:07;21.20;66.80
23769;DHT22;12064;50.890;5.424;2023-02-10T19:48:58;21.50;67.50
23769;DHT22;12064;50.890;5.424;2023-02-10T19:57:52;22.20;66.50
23769;DHT22;12064;50.890;5.424;2023-02-10T20:06:44;23.10;64.30
23769;DHT22;12064;50.890;5.424;2023-02-10T20:15:35;23.30;64.10
23769;DHT22;12064;50.890;5.424;2023-02-10T20:24:30;23.00;64.10
23769;DHT22;12064;50.890;5.424;2023-02-10T20:33:21;23.40;63.70
23769;DHT22;12064;50.890;5.424;2023-02-10T20:42:14;23.40;63.90
23769;DHT22;12064;50.890;5.424;2023-02-10T20:51:06;23.60;64.00
23769;DHT22;12064;50.890;5.424;2023-02-10T20:59:58;23.50;63.80
23769;DHT22;12064;50.890;5.424;2023-02-10T21:08:53;23.80;63.30
23769;DHT22;12064;50.890;5.424;2023-02-10T21:17:44;23.90;63.10
23769;DHT22;12064;50.890;5.424;2023-02-10T21:26:36;24.10;62.70
23769;DHT22;12064;50.890;5.424;2023-02-10T21:35:27;24.20;62.20
23769;DHT22;12064;50.890;5.424;2023-02-10T21:44:29;24.30;62.50
23769;DHT22;12064;50.890;5.424;2023-02-10T21:53:27;24.20;62.60
23769;DHT22;12064;50.890;5.424;2023-02-10T22:02:19;24.10;62.80
23769;DHT22;12064;50.890;5.424;2023-02-10T22:11:14;23.80;62.90
23769;DHT22;12064;50.890;5.424;2023-02-10T22:20:05;23.50;63.20
23769;DHT22;12064;50.890;5.424;2023-02-10T22:29:04;23.40;63.10
23769;DHT22;12064;50.890;5.424;2023-02-10T22:37:54;23.10;63.30
23769;DHT22;12064;50.890;5.424;2023-02-10T22:46:45;22.90;63.50
23769;DHT22;12064;50.890;5.424;2023-02-10T22:55:36;22.90;63.40
23769;DHT22;12064;50.890;5.424;2023-02-10T23:04:32;22.60;63.60
23769;DHT22;12064;50.890;5.424;2023-02-10T23:13:23;22.40;64.80
23769;DHT22;12064;50.890;5.424;2023-02-10T23:22:13;22.40;63.90
23769;DHT22;12064;50.890;5.424;2023-02-10T23:31:37;22.30;63.90
23769;DHT22;12064;50.890;5.424;2023-02-10T23:40:27;22.20;63.90
23769;DHT22;12064;50.890;5.424;2023-02-10T23:49:18;22.10;63.90
23769;DHT22;12064;50.890;5.424;2023-02-10T23:58:12;22.10;63.70
